createdAt,value
2018-02-10T10:01:47.805Z,84.6
2018-02-10T10:02:08.464Z,89.1
2018-02-10T10:03:15.726Z,88.6
2018-02-10T10:04:19.202Z,82.5
2018-02-10T10:05:22.570Z,81.9
2018-02-10T10:06:27.565Z,82
2018-02-10T10:07:31.721Z,82.9
2018-02-10T10:08:35.312Z,83
2018-02-10T10:09:39.812Z,83.6
2018-02-10T10:10:43.276Z,83.5
2018-02-10T10:11:48.606Z,83.7
2018-02-10T10:12:53.873Z,84.1
2018-02-10T10:14:03.124Z,84.2
2018-02-10T10:15:06.683Z,84.2
2018-02-10T10:16:10.910Z,84.5
2018-02-10T10:17:15.151Z,84.2
2018-02-10T10:18:18.537Z,83.8
2018-02-10T10:19:23.345Z,83.9
2018-02-10T10:20:27.886Z,84
2018-02-10T10:21:32.471Z,84.4
2018-02-10T10:22:36.002Z,84.5
2018-02-10T10:23:40.094Z,84.5
2018-02-10T10:25:20.254Z,83.6
2018-02-10T10:26:24.263Z,83.8
2018-02-10T10:27:27.704Z,84.1
2018-02-10T10:28:31.267Z,83.9
2018-02-10T10:29:35.429Z,83.2
2018-02-10T10:30:38.887Z,82.8
2018-02-10T10:31:44.586Z,82.8
2018-02-10T10:32:48.726Z,82.9
2018-02-10T10:33:54.848Z,83
2018-02-10T10:34:59.555Z,83.3
2018-02-10T10:36:09.456Z,82.5
2018-02-10T10:37:13.006Z,82.6
2018-02-10T10:38:17.057Z,82.4
2018-02-10T10:39:21.395Z,82.7
2018-02-10T10:40:24.772Z,83.1
2018-02-10T10:41:31.207Z,82.6
2018-02-10T10:42:35.192Z,82.4
2018-02-10T10:43:39.486Z,82.2
2018-02-10T10:44:43.952Z,82.5
2018-02-10T10:45:47.406Z,82.5
2018-02-10T10:46:56.689Z,82.2
2018-02-10T10:48:01.056Z,82.4
2018-02-10T10:49:05.298Z,82.7
2018-02-10T10:50:09.598Z,82.3
2018-02-10T10:51:13.676Z,82.3
2018-02-10T10:52:18.197Z,82.3
2018-02-10T10:53:24.220Z,82.7
2018-02-10T10:54:29.014Z,82.9
2018-02-10T10:55:32.471Z,82.6
2018-02-10T10:56:38.506Z,82.7
2018-02-10T10:57:46.863Z,82.1
2018-02-10T10:58:55.182Z,82.1
2018-02-10T10:59:58.487Z,82.6
2018-02-10T11:01:05.561Z,82.4
2018-02-10T11:02:10.372Z,82.3
2018-02-10T11:03:13.768Z,81.9
2018-02-10T11:04:18.793Z,82.1
2018-02-10T11:05:23.451Z,82.6
2018-02-10T11:06:28.119Z,82.7
2018-02-10T11:07:32.648Z,82.1
2018-02-10T11:08:41.349Z,82.3
2018-02-10T11:09:46.201Z,81.6
2018-02-10T11:10:50.066Z,81.6
2018-02-10T11:11:55.604Z,81.7
2018-02-10T11:12:59.733Z,81.9
2018-02-10T11:14:04.614Z,82.1
2018-02-10T11:15:07.904Z,82.3
2018-02-10T11:16:13.389Z,82.6
2018-02-10T11:17:18.944Z,82.3
2018-02-10T11:18:22.888Z,82.4
2018-02-10T11:19:31.264Z,82.2
2018-02-10T11:20:37.069Z,81.9
2018-02-10T11:21:41.578Z,81.5
2018-02-10T11:22:45.538Z,81.9
2018-02-10T11:23:50.254Z,81.8
2018-02-10T11:24:53.635Z,81.8
2018-02-10T11:25:58.932Z,81.8
2018-02-10T11:27:03.021Z,81.2
2018-02-10T11:28:06.566Z,81.5
2018-02-10T11:29:10.052Z,81.9
2018-02-10T11:30:19.908Z,81.5
2018-02-10T11:31:24.497Z,81
2018-02-10T11:32:28.734Z,81.6
2018-02-10T11:33:33.142Z,81.3
2018-02-10T11:34:37.334Z,81.1
2018-02-10T11:35:41.567Z,81.5
2018-02-10T11:36:46.065Z,81.9
2018-02-10T11:37:50.565Z,81.6
2018-02-10T11:38:53.983Z,81.6
2018-02-10T11:39:58.128Z,81.8
2018-02-10T11:41:09.150Z,82
2018-02-10T11:42:12.587Z,83
2018-02-10T11:43:17.102Z,82.5
2018-02-10T11:44:21.407Z,82
2018-02-10T11:45:24.997Z,81.6
2018-02-10T11:46:29.265Z,81.7
2018-02-10T11:47:34.535Z,81.8
2018-02-10T11:48:37.987Z,81.9
2018-02-10T11:49:41.436Z,82.2
2018-02-10T11:50:44.978Z,82
2018-02-10T11:51:51.951Z,82.2
2018-02-10T11:52:55.422Z,81.9
2018-02-10T11:53:59.823Z,82
2018-02-10T11:55:03.230Z,83.1
2018-02-10T11:56:07.248Z,82.8
2018-02-10T11:57:11.349Z,82.6
2018-02-10T11:58:14.744Z,82.5
2018-02-10T11:59:18.174Z,82.5
2018-02-10T12:00:21.559Z,82.4
2018-02-10T12:01:24.928Z,82.1
2018-02-10T12:02:32.497Z,81.8
2018-02-10T12:03:37.228Z,81.6
2018-02-10T12:04:40.718Z,81.8
2018-02-10T12:05:45.450Z,81.5
2018-02-10T12:06:49.368Z,81
2018-02-10T12:07:52.793Z,81.2
2018-02-10T12:08:56.258Z,81.5
2018-02-10T12:09:59.731Z,82.2
2018-02-10T12:11:03.076Z,82.1
2018-02-10T12:12:08.857Z,81.9
2018-02-10T12:13:17.846Z,81.9
2018-02-10T12:14:21.471Z,82.1
2018-02-10T12:15:25.129Z,81.9
2018-02-10T12:16:29.179Z,81.7
2018-02-10T12:17:33.359Z,81.3
2018-02-10T12:18:36.920Z,81.4
2018-02-10T12:19:40.618Z,81.5
2018-02-10T12:20:46.138Z,81.8
2018-02-10T12:21:49.560Z,81.9
2018-02-10T12:22:54.169Z,81.7
2018-02-10T12:24:01.097Z,81.7
2018-02-10T12:25:04.493Z,82.1
2018-02-10T12:26:08.512Z,82
2018-02-10T12:27:13.026Z,82.2
2018-02-10T12:28:17.905Z,81.8
2018-02-10T12:29:22.035Z,81.6
2018-02-10T12:30:25.569Z,81.4
2018-02-10T12:31:29.107Z,81
2018-02-10T12:32:32.510Z,81.1
2018-02-10T12:33:36.020Z,81.3
2018-02-10T12:35:49.101Z,81.2
2018-02-10T12:36:54.313Z,81
2018-02-10T12:37:59.378Z,81.1
2018-02-10T12:39:02.599Z,80.9
2018-02-10T12:40:07.352Z,80.9
2018-02-10T12:41:11.820Z,80.8
2018-02-10T12:42:15.425Z,81.1
2018-02-10T12:43:18.865Z,81
2018-02-10T12:44:23.118Z,81
2018-02-10T12:45:27.817Z,81
2018-02-10T12:46:36.511Z,80.7
2018-02-10T12:47:40.713Z,81.1
2018-02-10T12:48:44.275Z,81.3
2018-02-10T12:49:47.595Z,81
2018-02-10T12:50:51.055Z,80.9
2018-02-10T12:51:54.643Z,81.3
2018-02-10T12:52:58.134Z,81.6
2018-02-10T12:54:01.632Z,81.6
2018-02-10T12:55:05.172Z,81.3
2018-02-10T12:56:08.695Z,81.2
2018-02-10T12:57:15.718Z,81.4
2018-02-10T12:58:19.207Z,81.6
2018-02-10T12:59:22.748Z,81.7
2018-02-10T13:00:26.353Z,81.7
2018-02-10T13:01:29.970Z,81.5
2018-02-10T13:02:34.134Z,81.5
2018-02-10T13:03:37.728Z,81.4
2018-02-10T13:04:41.716Z,81.2
2018-02-10T13:05:45.145Z,81
2018-02-10T13:06:49.193Z,80.8
2018-02-10T13:07:56.926Z,80.5
2018-02-10T13:09:00.404Z,80.1
2018-02-10T13:10:03.806Z,79.8
2018-02-10T13:11:07.856Z,80.1
2018-02-10T13:12:11.202Z,80.6
2018-02-10T13:13:14.752Z,80.6
2018-02-10T13:14:18.208Z,81.1
2018-02-10T13:15:22.176Z,81.2
2018-02-10T13:16:26.614Z,81
2018-02-10T13:17:30.945Z,81.3
2018-02-10T13:18:38.276Z,81.3
2018-02-10T13:19:41.633Z,81
2018-02-10T13:20:45.079Z,80.9
2018-02-10T13:21:48.510Z,80.5
2018-02-10T13:22:52.474Z,80.5
2018-02-10T13:23:57.954Z,80.9
2018-02-10T13:25:01.437Z,80.4
2018-02-10T13:26:04.925Z,80.6
2018-02-10T13:27:08.096Z,80.9
2018-02-10T13:28:12.029Z,81.2
2018-02-10T13:29:20.157Z,80.8
2018-02-10T13:30:24.776Z,81.2
2018-02-10T13:31:30.008Z,81.3
2018-02-10T13:32:34.160Z,81.5
2018-02-10T13:33:37.635Z,81.9
2018-02-10T13:34:41.062Z,81.7
2018-02-10T13:35:45.115Z,81.8
2018-02-10T13:36:50.130Z,82.1
2018-02-10T13:37:53.575Z,81.6
2018-02-10T13:38:59.065Z,81.3
2018-02-10T13:40:06.678Z,81
2018-02-10T13:41:10.092Z,80.9
2018-02-10T13:42:14.182Z,81.4
2018-02-10T13:43:18.638Z,81.4
2018-02-10T13:44:23.990Z,80.9
2018-02-10T13:45:28.005Z,81.3
2018-02-10T13:46:32.768Z,81.2
2018-02-10T13:47:36.178Z,80.8
2018-02-10T13:48:40.969Z,81.1
2018-02-10T13:49:45.930Z,81.2
2018-02-10T13:50:55.042Z,81.5
2018-02-10T13:52:00.899Z,81.6
2018-02-10T13:53:05.030Z,81.2
2018-02-10T13:54:08.574Z,80.7
2018-02-10T13:55:11.989Z,81.1
2018-02-10T13:56:16.262Z,81.1
2018-02-10T13:57:19.623Z,81
2018-02-10T13:58:23.987Z,81.5
2018-02-10T13:59:27.508Z,81.9
2018-02-10T14:00:30.985Z,81.9
2018-02-10T14:01:39.736Z,81.7
2018-02-10T14:02:45.150Z,82.2
2018-02-10T14:03:48.539Z,82.4
2018-02-10T14:04:53.996Z,81.9
2018-02-10T14:05:57.402Z,81.7
2018-02-10T14:07:00.877Z,81.7
2018-02-10T14:08:04.979Z,81.7
2018-02-10T14:09:08.298Z,81.6
2018-02-10T14:10:11.707Z,81.5
2018-02-10T14:11:16.850Z,81.5
2018-02-10T14:12:25.115Z,81.5
2018-02-10T14:13:28.442Z,82.2
2018-02-10T14:14:32.993Z,81.3
2018-02-10T14:15:36.515Z,81.3
2018-02-10T14:16:42.460Z,81
2018-02-10T14:17:45.875Z,80.9
2018-02-10T14:18:49.335Z,80.7
2018-02-10T14:19:54.180Z,80.7
2018-02-10T14:20:58.511Z,81
2018-02-10T14:22:03.534Z,81.4
2018-02-10T14:23:12.268Z,80.8
2018-02-10T14:24:15.738Z,80.6
2018-02-10T14:25:19.645Z,80.5
2018-02-10T14:26:23.954Z,80.9
2018-02-10T14:27:27.479Z,81
2018-02-10T14:28:30.885Z,81.4
2018-02-10T14:29:34.019Z,81.2
2018-02-10T14:30:37.521Z,81.2
2018-02-10T14:31:41.590Z,81.1
2018-02-10T14:32:48.295Z,81.2
2018-02-10T14:33:57.040Z,81.3
2018-02-10T14:35:00.594Z,81.4
2018-02-10T14:36:03.913Z,81.2
2018-02-10T14:37:08.207Z,81.1
2018-02-10T14:38:12.454Z,80.8
2018-02-10T14:39:16.682Z,81
2018-02-10T14:40:21.042Z,81.3
2018-02-10T14:41:27.115Z,80.8
2018-02-10T14:42:30.627Z,80.6
2018-02-10T14:43:34.506Z,80.7
2018-02-10T14:44:42.068Z,80.1
2018-02-10T14:45:46.522Z,79.9
2018-02-10T14:46:50.743Z,80.2
2018-02-10T14:47:54.911Z,80.4
2018-02-10T14:48:58.067Z,80.3
2018-02-10T14:50:02.940Z,80.5
2018-02-10T14:51:07.420Z,80.7
2018-02-10T14:52:10.798Z,80.8
2018-02-10T14:53:15.277Z,80.9
2018-02-10T14:54:19.058Z,80.9
2018-02-10T14:55:26.639Z,80.9
2018-02-10T14:56:30.197Z,81
2018-02-10T14:57:33.716Z,81.2
2018-02-10T14:58:37.722Z,81.4
2018-02-10T14:59:41.336Z,81.6
2018-02-10T15:00:45.962Z,80.9
2018-02-10T15:01:51.000Z,80.6
2018-02-10T15:02:56.865Z,80.4
2018-02-10T15:04:01.827Z,80.4
2018-02-10T15:05:06.219Z,80.5
2018-02-10T15:06:13.144Z,80.4
2018-02-10T15:07:16.757Z,80.6
2018-02-10T15:08:20.739Z,80.7
2018-02-10T15:09:25.257Z,81
2018-02-10T15:10:28.854Z,81.2
2018-02-10T15:11:33.554Z,80.8
2018-02-10T15:12:37.616Z,80.5
2018-02-10T15:13:41.224Z,80.6
2018-02-10T15:14:44.996Z,80.5
2018-02-10T15:15:48.304Z,80.1
2018-02-10T15:16:57.562Z,79.8
2018-02-10T15:18:00.810Z,80
2018-02-10T15:19:04.803Z,79.8
2018-02-10T15:20:08.930Z,80.2
2018-02-10T15:21:12.540Z,80.6
2018-02-10T15:22:16.035Z,80.7
2018-02-10T15:23:20.080Z,80.7
2018-02-10T15:24:24.837Z,80.6
2018-02-10T15:25:28.236Z,80.2
2018-02-10T15:26:32.384Z,80.2
2018-02-10T15:27:40.060Z,80.7
2018-02-10T15:28:43.626Z,80.1
2018-02-10T15:29:47.185Z,80
2018-02-10T15:30:50.748Z,80.1
2018-02-10T15:31:54.707Z,80
2018-02-10T15:32:58.927Z,80.1
2018-02-10T15:34:02.425Z,80.1
2018-02-10T15:35:06.018Z,80
2018-02-10T15:36:09.656Z,80.4
2018-02-10T15:37:13.756Z,80.3
2018-02-10T15:38:21.781Z,80.6
2018-02-10T15:39:25.312Z,80.8
2018-02-10T15:40:29.393Z,80.9
2018-02-10T15:41:33.970Z,80.9
2018-02-10T15:42:37.457Z,80.6
2018-02-10T15:43:41.724Z,80.7
2018-02-10T15:44:45.269Z,80.5
2018-02-10T15:45:48.813Z,80.1
2018-02-10T15:46:52.362Z,80.2
2018-02-10T15:47:56.492Z,80.4
2018-02-10T15:49:05.845Z,80.5
2018-02-10T15:50:09.430Z,80.9
2018-02-10T15:51:13.050Z,81
2018-02-10T15:52:17.556Z,81
2018-02-10T15:53:20.951Z,81.1
2018-02-10T15:54:24.464Z,80.9
2018-02-10T15:55:28.662Z,80.5
2018-02-10T15:56:32.213Z,80.3
2018-02-10T15:57:36.506Z,80.4
2018-02-10T15:58:40.052Z,80.5
2018-02-10T16:00:20.668Z,80.7
2018-02-10T16:01:24.777Z,80.7
2018-02-10T16:02:29.007Z,80.8
2018-02-10T16:03:34.525Z,80.9
2018-02-10T16:04:37.860Z,81
2018-02-10T16:05:42.266Z,81.3
2018-02-10T16:06:46.945Z,81.3
2018-02-10T16:07:50.982Z,81.3
2018-02-10T16:08:55.060Z,81.3
2018-02-10T16:10:00.140Z,81.2
2018-02-10T16:11:07.786Z,81.2
2018-02-10T16:12:13.929Z,81.7
2018-02-10T16:13:17.405Z,81.8
2018-02-10T16:14:22.320Z,81.8
2018-02-10T16:15:26.622Z,81.4
2018-02-10T16:16:30.131Z,81.2
2018-02-10T16:17:33.515Z,81.5
2018-02-10T16:18:37.070Z,81.6
2018-02-10T16:19:41.364Z,81.9
2018-02-10T16:20:44.800Z,82.5
2018-02-10T16:21:51.657Z,81.8
2018-02-10T16:22:55.643Z,82.1
2018-02-10T16:23:59.070Z,82.1
2018-02-10T16:25:02.687Z,81.9
2018-02-10T16:26:06.847Z,81.9
2018-02-10T16:27:10.870Z,81.6
2018-02-10T16:28:14.761Z,81.4
2018-02-10T16:29:18.560Z,81.7
2018-02-10T16:30:22.103Z,81.8
2018-02-10T16:31:25.599Z,81.7
2018-02-10T16:32:32.761Z,81.3
2018-02-10T16:33:36.375Z,81.5
2018-02-10T16:34:40.097Z,81.6
2018-02-10T16:35:43.714Z,81.8
2018-02-10T16:36:47.206Z,81.3
2018-02-10T16:37:50.650Z,81.2
2018-02-10T16:38:54.213Z,81.2
2018-02-10T16:39:57.751Z,80.8
2018-02-10T16:41:01.326Z,80.7
2018-02-10T16:42:04.909Z,81
2018-02-10T16:43:11.965Z,81.3
2018-02-10T16:44:15.468Z,81.5
2018-02-10T16:45:18.902Z,81.6
2018-02-10T16:46:22.467Z,81.9
2018-02-10T16:47:25.869Z,81.9
2018-02-10T16:48:29.442Z,81.8
2018-02-10T16:49:32.896Z,81.6
2018-02-10T16:50:36.739Z,81.5
2018-02-10T16:51:40.341Z,81.6
2018-02-10T16:52:43.739Z,81.6
2018-02-10T16:53:50.862Z,82
2018-02-10T16:54:55.849Z,82.3
2018-02-10T16:55:59.229Z,82.6
2018-02-10T16:57:02.725Z,82.4
2018-02-10T16:58:06.148Z,82.2
2018-02-10T16:59:10.273Z,82.2
2018-02-10T17:00:13.656Z,82.4
2018-02-10T17:01:17.150Z,82.7
2018-02-10T17:02:20.540Z,82.5
2018-02-10T17:03:23.866Z,82.7
2018-02-10T17:04:30.890Z,83
2018-02-10T17:05:34.233Z,82.7
2018-02-10T17:06:37.836Z,82.7
2018-02-10T17:07:41.233Z,82.8
2018-02-10T17:08:45.375Z,82.8
2018-02-10T17:09:48.785Z,83
2018-02-10T17:10:52.281Z,83.3
2018-02-10T17:11:55.840Z,83.5
2018-02-10T17:12:59.869Z,83.9
2018-02-10T17:14:03.500Z,84.1
2018-02-10T17:15:11.210Z,84.3
2018-02-10T17:16:14.756Z,84.8
2018-02-10T17:17:18.311Z,84.9
2018-02-10T17:18:21.667Z,85.1
2018-02-10T17:19:25.133Z,85.3
2018-02-10T17:20:28.741Z,85.5
2018-02-10T17:21:32.940Z,85.7
2018-02-10T17:22:37.588Z,85.7
2018-02-10T17:23:41.168Z,85.7
2018-02-10T17:24:45.296Z,86.1
2018-02-10T17:25:52.263Z,86.3
2018-02-10T17:26:55.737Z,86.7
2018-02-10T17:27:59.303Z,86.9
2018-02-10T17:29:02.687Z,87.2
2018-02-10T17:30:06.789Z,87.3
2018-02-10T17:31:11.581Z,87.3
2018-02-10T17:32:15.792Z,87.5
2018-02-10T17:33:19.368Z,87.6
2018-02-10T17:34:23.600Z,87.6
2018-02-10T17:35:27.622Z,87.6
2018-02-10T17:36:37.191Z,87.5
2018-02-10T17:37:41.261Z,87.7
2018-02-10T17:38:48.720Z,87.9
2018-02-10T17:39:52.252Z,88.2
2018-02-10T17:40:55.832Z,88.1
2018-02-10T17:41:59.360Z,88
2018-02-10T17:43:03.582Z,88.3
2018-02-10T17:44:07.069Z,88.5
2018-02-10T17:45:11.031Z,88.4
2018-02-10T17:46:14.294Z,88.3
2018-02-10T17:47:21.989Z,88.2
2018-02-10T17:48:26.097Z,88.4
2018-02-10T17:49:30.177Z,88.3
2018-02-10T17:50:33.491Z,88.3
2018-02-10T17:51:36.980Z,88.5
2018-02-10T17:52:41.078Z,88.6
2018-02-10T17:53:45.884Z,88.6
2018-02-10T17:54:49.358Z,88.7
2018-02-10T17:55:54.262Z,88.8
2018-02-10T17:56:58.495Z,88.8
2018-02-10T17:58:06.682Z,89
2018-02-10T17:59:10.215Z,89.2
2018-02-10T18:00:15.270Z,89.2
2018-02-10T18:01:19.681Z,89.2
2018-02-10T18:02:23.278Z,89.3
2018-02-10T18:03:26.826Z,89.4
2018-02-10T18:04:30.473Z,89.6
2018-02-10T18:05:35.562Z,90
2018-02-10T18:06:38.989Z,89.9
2018-02-10T18:07:42.430Z,90
2018-02-10T18:08:50.348Z,90
2018-02-10T18:09:54.582Z,89.8
2018-02-10T18:10:58.091Z,89.9
2018-02-10T18:12:02.147Z,90.1
2018-02-10T18:13:05.566Z,90
2018-02-10T18:14:09.109Z,90
2018-02-10T18:15:13.203Z,90.1
2018-02-10T18:16:16.819Z,90
2018-02-10T18:17:20.291Z,90.1
2018-02-10T18:18:23.764Z,90.1
2018-02-10T18:19:30.975Z,90.3
2018-02-10T18:20:35.706Z,90.5
2018-02-10T18:21:40.637Z,90.6
2018-02-10T18:22:44.655Z,90.5
2018-02-10T18:23:48.153Z,90.5
2018-02-10T18:50:39.359Z,91.9
2018-02-10T19:19:31.097Z,93
2018-02-10T19:20:34.739Z,93.3
2018-02-10T19:21:38.734Z,93.1
2018-02-10T19:22:42.252Z,93.1
2018-02-10T19:23:46.016Z,92.6
2018-02-10T19:24:49.409Z,92.8
2018-02-10T19:25:53.781Z,92.7
2018-02-10T19:26:57.248Z,92.5
2018-02-10T19:28:02.065Z,92.7
2018-02-10T19:29:05.457Z,92.6
2018-02-10T19:30:12.516Z,92.1
2018-02-10T19:31:16.554Z,92.2
2018-02-10T19:32:20.595Z,91.4
2018-02-10T19:33:24.204Z,91.6
2018-02-10T19:34:27.610Z,91.2
2018-02-10T19:36:33.578Z,91.1
2018-02-10T19:39:42.265Z,90.7
2018-02-10T19:40:49.317Z,90.8
2018-02-10T19:41:52.887Z,90.8
2018-02-10T19:42:56.377Z,90.9
2018-02-10T19:43:59.859Z,90.8
2018-02-10T19:45:03.452Z,90.7
2018-02-10T19:46:07.547Z,90.8
2018-02-10T19:52:25.658Z,90.2
2018-02-10T19:59:41.802Z,89.8
2018-02-10T20:00:45.323Z,90.1
2018-02-10T20:02:54.406Z,89.8
2018-02-10T20:07:05.268Z,90
2018-02-10T20:08:08.862Z,90.3
2018-02-10T20:14:27.310Z,89.5
2018-02-10T20:16:33.077Z,89.6
2018-02-10T20:17:36.511Z,89.6
2018-02-10T20:18:40.054Z,90.1
2018-02-10T20:19:43.655Z,90
2018-02-10T20:20:47.184Z,90
2018-02-10T20:21:50.525Z,90
2018-02-10T20:22:57.654Z,89.6
2018-02-10T20:24:01.168Z,90
2018-02-10T20:25:04.773Z,89.8
2018-02-10T20:26:08.373Z,89.4
2018-02-10T20:27:11.798Z,89.3
2018-02-10T20:28:15.401Z,89.4
2018-02-10T20:29:18.935Z,89.3
2018-02-10T20:30:22.600Z,89
2018-02-10T20:31:26.005Z,89
2018-02-10T20:32:29.541Z,89.6
2018-02-10T20:33:36.643Z,88.3
2018-02-10T20:34:40.044Z,88.9
2018-02-10T20:35:43.436Z,88.8
2018-02-10T20:36:47.012Z,88.9
2018-02-10T20:37:50.466Z,90
2018-02-10T20:54:32.236Z,86.2
2018-02-10T21:00:46.488Z,86.2
2018-02-10T21:05:00.298Z,86
2018-02-10T21:14:21.855Z,85.7
2018-02-10T21:15:30.779Z,85.6
2018-02-10T21:16:34.232Z,86.1
2018-02-10T21:28:05.804Z,86.2
2018-02-10T21:29:09.828Z,86.1
2018-02-10T21:30:13.966Z,86
2018-02-10T21:31:18.056Z,86.3
2018-02-10T21:32:21.708Z,86.7
2018-02-10T21:33:25.300Z,86.7
2018-02-10T21:34:28.653Z,86.5
2018-02-10T21:35:32.188Z,86.2
2018-02-10T21:38:44.693Z,86.2
2018-02-10T21:39:48.163Z,85.9
2018-02-10T21:46:06.474Z,85.4
2018-02-10T21:48:16.742Z,85.7
2018-02-10T21:53:30.976Z,85.3
2018-02-10T21:54:34.432Z,85.1
2018-02-10T22:00:56.954Z,84.6
2018-02-10T22:02:02.818Z,84.6
2018-02-10T22:03:06.297Z,85
2018-02-10T22:04:10.254Z,85
2018-02-10T22:05:15.032Z,84.8
2018-02-10T22:06:18.387Z,84.6
2018-02-10T22:14:43.154Z,84.9
2018-02-10T22:15:47.516Z,84.8
2018-02-10T22:17:53.000Z,84.6
2018-02-10T22:20:34.525Z,84.8
2018-02-10T22:28:55.131Z,84.8
2018-02-10T22:32:05.829Z,84.6
2018-02-10T23:10:45.702Z,84.7
2018-02-10T23:11:53.450Z,84.6
2018-02-10T23:22:21.683Z,84.3
2018-02-10T23:23:25.171Z,84.2
2018-02-10T23:24:30.031Z,84.8
2018-02-10T23:33:58.005Z,84.3
2018-02-10T23:36:04.144Z,84.4
2018-02-10T23:43:24.463Z,84.6
2018-02-10T23:53:51.443Z,84.4
2018-02-10T23:54:54.878Z,84.1
2018-02-10T23:55:58.623Z,84.5
2018-02-10T23:57:02.288Z,84.6
2018-02-10T23:58:05.871Z,85.1
2018-02-10T23:59:09.841Z,85.1
